sensor_id;sensor_type;location;lat;lon;timestamp;temperature;humidity
11089;DHT22;5598;48.648;8.908;2024-01-30T00:00:30;4.50;99.90
11089;DHT22;5598;48.648;8.908;2024-01-30T00:02:57;4.50;99.90
11089;DHT22;5598;48.648;8.908;2024-01-30T00:05:24;4.50;99.90
11089;DHT22;5598;48.648;8.908;2024-01-30T00:07:50;4.60;99.90
11089;DHT22;5598;48.648;8.908;2024-01-30T00:10:19;4.60;99.80
11089;DHT22;5598;48.648;8.908;2024-01-30T00:12:46;4.50;99.50
11089;DHT22;5598;48.648;8.908;2024-01-30T00:15:13;4.50;99.30
11089;DHT22;5598;48.648;8.908;2024-01-30T00:17:40;4.40;99.10
11089;DHT22;5598;48.648;8.908;2024-01-30T00:20:07;4.30;99.10
11089;DHT22;5598;48.648;8.908;2024-01-30T00:22:35;4.30;99.50
11089;DHT22;5598;48.648;8.908;2024-01-30T00:25:02;4.30;99.90
11089;DHT22;5598;48.648;8.908;2024-01-30T00:27:30;4.30;99.90
11089;DHT22;5598;48.648;8.908;2024-01-30T00:29:56;4.30;99.90
11089;DHT22;5598;48.648;8.908;2024-01-30T00:32:23;4.40;99.90
11089;DHT22;5598;48.648;8.908;2024-01-30T00:34:50;4.50;99.90
11089;DHT22;5598;48.648;8.908;2024-01-30T00:37:17;4.50;99.90
11089;DHT22;5598;48.648;8.908;2024-01-30T00:39:44;4.60;99.90
11089;DHT22;5598;48.648;8.908;2024-01-30T00:42:10;4.60;99.90
11089;DHT22;5598;48.648;8.908;2024-01-30T00:44:38;4.60;99.90
11089;DHT22;5598;48.648;8.908;2024-01-30T00:47:05;4.70;99.90
11089;DHT22;5598;48.648;8.908;2024-01-30T00:49:33;4.60;99.90
11089;DHT22;5598;48.648;8.908;2024-01-30T00:52:00;4.60;99.90
11089;DHT22;5598;48.648;8.908;2024-01-30T00:54:27;4.60;99.90
11089;DHT22;5598;48.648;8.908;2024-01-30T00:56:53;4.60;99.90
11089;DHT22;5598;48.648;8.908;2024-01-30T00:59:20;4.60;99.90
11089;DHT22;5598;48.648;8.908;2024-01-30T01:01:48;4.60;99.90
11089;DHT22;5598;48.648;8.908;2024-01-30T01:04:15;4.60;99.90
11089;DHT22;5598;48.648;8.908;2024-01-30T01:06:42;4.60;99.90
11089;DHT22;5598;48.648;8.908;2024-01-30T01:09:10;4.60;99.90
11089;DHT22;5598;48.648;8.908;2024-01-30T01:11:37;4.50;99.90
11089;DHT22;5598;48.648;8.908;2024-01-30T01:14:04;4.50;99.90
11089;DHT22;5598;48.648;8.908;2024-01-30T01:16:31;4.40;99.90
11089;DHT22;5598;48.648;8.908;2024-01-30T01:18:59;4.40;99.90
11089;DHT22;5598;48.648;8.908;2024-01-30T01:21:26;4.40;99.90
11089;DHT22;5598;48.648;8.908;2024-01-30T01:23:53;4.40;99.90
11089;DHT22;5598;48.648;8.908;2024-01-30T01:26:20;4.40;99.80
11089;DHT22;5598;48.648;8.908;2024-01-30T01:28:46;4.20;99.60
11089;DHT22;5598;48.648;8.908;2024-01-30T01:31:13;4.00;99.80
11089;DHT22;5598;48.648;8.908;2024-01-30T01:33:40;4.00;99.90
11089;DHT22;5598;48.648;8.908;2024-01-30T01:36:08;3.90;99.90
11089;DHT22;5598;48.648;8.908;2024-01-30T01:38:35;3.80;99.90
11089;DHT22;5598;48.648;8.908;2024-01-30T01:41:02;3.80;99.90
11089;DHT22;5598;48.648;8.908;2024-01-30T01:43:29;3.70;99.90
11089;DHT22;5598;48.648;8.908;2024-01-30T01:45:56;3.70;99.90
11089;DHT22;5598;48.648;8.908;2024-01-30T01:48:23;3.60;99.90
11089;DHT22;5598;48.648;8.908;2024-01-30T01:50:50;3.70;99.90
11089;DHT22;5598;48.648;8.908;2024-01-30T01:53:19;3.80;99.90
11089;DHT22;5598;48.648;8.908;2024-01-30T01:55:47;3.80;99.90
11089;DHT22;5598;48.648;8.908;2024-01-30T01:58:14;3.80;99.90
11089;DHT22;5598;48.648;8.908;2024-01-30T02:00:41;3.70;99.90
11089;DHT22;5598;48.648;8.908;2024-01-30T02:03:10;3.70;99.90
11089;DHT22;5598;48.648;8.908;2024-01-30T02:05:38;3.70;99.90
11089;DHT22;5598;48.648;8.908;2024-01-30T02:08:05;3.80;99.90
11089;DHT22;5598;48.648;8.908;2024-01-30T02:10:34;3.80;99.90
11089;DHT22;5598;48.648;8.908;2024-01-30T02:13:01;3.90;99.90
11089;DHT22;5598;48.648;8.908;2024-01-30T02:15:28;3.80;99.90
11089;DHT22;5598;48.648;8.908;2024-01-30T02:17:55;3.80;99.90
11089;DHT22;5598;48.648;8.908;2024-01-30T02:20:23;3.90;99.90
11089;DHT22;5598;48.648;8.908;2024-01-30T02:22:53;3.80;99.90
11089;DHT22;5598;48.648;8.908;2024-01-30T02:25:20;3.90;99.90
11089;DHT22;5598;48.648;8.908;2024-01-30T02:27:56;3.90;99.90
11089;DHT22;5598;48.648;8.908;2024-01-30T02:30:23;3.90;99.90
11089;DHT22;5598;48.648;8.908;2024-01-30T02:32:49;3.90;99.90
11089;DHT22;5598;48.648;8.908;2024-01-30T02:35:16;3.90;99.90
11089;DHT22;5598;48.648;8.908;2024-01-30T02:37:43;3.80;99.90
11089;DHT22;5598;48.648;8.908;2024-01-30T02:40:11;3.80;99.90
11089;DHT22;5598;48.648;8.908;2024-01-30T02:42:39;3.80;99.90
11089;DHT22;5598;48.648;8.908;2024-01-30T02:45:08;3.80;99.90
11089;DHT22;5598;48.648;8.908;2024-01-30T02:47:35;3.70;99.90
11089;DHT22;5598;48.648;8.908;2024-01-30T02:50:02;3.60;99.90
11089;DHT22;5598;48.648;8.908;2024-01-30T02:52:28;3.60;99.90
11089;DHT22;5598;48.648;8.908;2024-01-30T02:54:55;3.60;99.90
11089;DHT22;5598;48.648;8.908;2024-01-30T02:57:23;3.60;99.90
11089;DHT22;5598;48.648;8.908;2024-01-30T02:59:50;3.60;99.90
11089;DHT22;5598;48.648;8.908;2024-01-30T03:02:17;3.60;99.90
11089;DHT22;5598;48.648;8.908;2024-01-30T03:04:44;3.50;99.90
11089;DHT22;5598;48.648;8.908;2024-01-30T03:07:11;3.50;99.90
11089;DHT22;5598;48.648;8.908;2024-01-30T03:09:38;3.40;99.90
11089;DHT22;5598;48.648;8.908;2024-01-30T03:12:05;3.40;99.90
11089;DHT22;5598;48.648;8.908;2024-01-30T03:14:33;3.50;99.90
11089;DHT22;5598;48.648;8.908;2024-01-30T03:17:00;3.50;99.90
11089;DHT22;5598;48.648;8.908;2024-01-30T03:19:28;3.40;99.90
11089;DHT22;5598;48.648;8.908;2024-01-30T03:21:55;3.40;99.90
11089;DHT22;5598;48.648;8.908;2024-01-30T03:24:21;3.40;99.90
11089;DHT22;5598;48.648;8.908;2024-01-30T03:26:48;3.40;99.90
11089;DHT22;5598;48.648;8.908;2024-01-30T03:29:15;3.30;99.90
11089;DHT22;5598;48.648;8.908;2024-01-30T03:31:43;3.40;99.90
11089;DHT22;5598;48.648;8.908;2024-01-30T03:34:10;3.40;99.90
11089;DHT22;5598;48.648;8.908;2024-01-30T03:36:37;3.40;99.90
11089;DHT22;5598;48.648;8.908;2024-01-30T03:39:03;3.40;99.90
11089;DHT22;5598;48.648;8.908;2024-01-30T03:41:31;3.40;99.90
11089;DHT22;5598;48.648;8.908;2024-01-30T03:43:59;3.30;99.90
11089;DHT22;5598;48.648;8.908;2024-01-30T03:46:26;3.20;99.90
11089;DHT22;5598;48.648;8.908;2024-01-30T03:48:54;3.10;99.90
11089;DHT22;5598;48.648;8.908;2024-01-30T03:51:21;3.00;99.90
11089;DHT22;5598;48.648;8.908;2024-01-30T03:53:47;3.00;99.90
11089;DHT22;5598;48.648;8.908;2024-01-30T03:56:14;2.90;99.90
11089;DHT22;5598;48.648;8.908;2024-01-30T03:58:41;2.90;99.90
11089;DHT22;5598;48.648;8.908;2024-01-30T04:01:12;2.80;99.90
11089;DHT22;5598;48.648;8.908;2024-01-30T04:03:39;2.70;99.90
11089;DHT22;5598;48.648;8.908;2024-01-30T04:06:07;2.70;99.90
11089;DHT22;5598;48.648;8.908;2024-01-30T04:08:34;2.70;99.90
11089;DHT22;5598;48.648;8.908;2024-01-30T04:11:03;2.60;99.90
11089;DHT22;5598;48.648;8.908;2024-01-30T04:13:31;2.60;99.90
11089;DHT22;5598;48.648;8.908;2024-01-30T04:15:59;2.50;99.90
11089;DHT22;5598;48.648;8.908;2024-01-30T04:18:26;2.50;99.90
11089;DHT22;5598;48.648;8.908;2024-01-30T04:20:53;2.50;99.90
11089;DHT22;5598;48.648;8.908;2024-01-30T04:23:22;2.50;99.90
11089;DHT22;5598;48.648;8.908;2024-01-30T04:25:48;2.40;99.90
11089;DHT22;5598;48.648;8.908;2024-01-30T04:28:15;2.40;99.90
11089;DHT22;5598;48.648;8.908;2024-01-30T04:30:42;2.40;99.90
11089;DHT22;5598;48.648;8.908;2024-01-30T04:33:10;2.40;99.90
11089;DHT22;5598;48.648;8.908;2024-01-30T04:35:37;2.30;99.90
11089;DHT22;5598;48.648;8.908;2024-01-30T04:38:04;2.30;99.90
11089;DHT22;5598;48.648;8.908;2024-01-30T04:40:32;2.30;99.90
11089;DHT22;5598;48.648;8.908;2024-01-30T04:42:59;2.20;99.90
11089;DHT22;5598;48.648;8.908;2024-01-30T04:45:26;2.10;99.90
11089;DHT22;5598;48.648;8.908;2024-01-30T04:47:52;2.20;99.90
11089;DHT22;5598;48.648;8.908;2024-01-30T04:50:19;2.10;99.90
11089;DHT22;5598;48.648;8.908;2024-01-30T04:52:46;2.10;99.90
11089;DHT22;5598;48.648;8.908;2024-01-30T04:55:14;2.00;99.90
11089;DHT22;5598;48.648;8.908;2024-01-30T04:57:43;2.00;99.90
11089;DHT22;5598;48.648;8.908;2024-01-30T05:00:10;2.00;99.90
11089;DHT22;5598;48.648;8.908;2024-01-30T05:02:38;2.00;99.90
11089;DHT22;5598;48.648;8.908;2024-01-30T05:05:05;1.90;99.90
11089;DHT22;5598;48.648;8.908;2024-01-30T05:07:32;2.00;99.90
11089;DHT22;5598;48.648;8.908;2024-01-30T05:09:59;1.90;99.90
11089;DHT22;5598;48.648;8.908;2024-01-30T05:12:26;2.00;99.90
11089;DHT22;5598;48.648;8.908;2024-01-30T05:14:54;1.90;99.90
11089;DHT22;5598;48.648;8.908;2024-01-30T05:17:21;1.90;99.90
11089;DHT22;5598;48.648;8.908;2024-01-30T05:19:48;1.90;99.90
11089;DHT22;5598;48.648;8.908;2024-01-30T05:22:15;1.90;99.90
11089;DHT22;5598;48.648;8.908;2024-01-30T05:24:44;2.00;99.90
11089;DHT22;5598;48.648;8.908;2024-01-30T05:27:11;2.00;99.90
11089;DHT22;5598;48.648;8.908;2024-01-30T05:29:38;2.00;99.90
11089;DHT22;5598;48.648;8.908;2024-01-30T05:32:07;2.00;99.90
11089;DHT22;5598;48.648;8.908;2024-01-30T05:34:35;2.00;99.90
11089;DHT22;5598;48.648;8.908;2024-01-30T05:37:02;2.10;99.90
11089;DHT22;5598;48.648;8.908;2024-01-30T05:39:29;2.00;99.90
11089;DHT22;5598;48.648;8.908;2024-01-30T05:41:58;2.10;99.90
11089;DHT22;5598;48.648;8.908;2024-01-30T05:44:25;2.10;99.90
11089;DHT22;5598;48.648;8.908;2024-01-30T05:46:52;2.10;99.90
11089;DHT22;5598;48.648;8.908;2024-01-30T05:49:20;2.00;99.90
11089;DHT22;5598;48.648;8.908;2024-01-30T05:51:47;2.10;99.90
11089;DHT22;5598;48.648;8.908;2024-01-30T05:54:14;2.10;99.90
11089;DHT22;5598;48.648;8.908;2024-01-30T05:56:41;2.20;99.90
11089;DHT22;5598;48.648;8.908;2024-01-30T05:59:07;2.20;99.90
11089;DHT22;5598;48.648;8.908;2024-01-30T06:01:34;2.30;99.90
11089;DHT22;5598;48.648;8.908;2024-01-30T06:04:01;2.30;99.90
11089;DHT22;5598;48.648;8.908;2024-01-30T06:06:29;2.40;99.90
11089;DHT22;5598;48.648;8.908;2024-01-30T06:08:56;2.40;99.90
11089;DHT22;5598;48.648;8.908;2024-01-30T06:11:23;2.40;99.90
11089;DHT22;5598;48.648;8.908;2024-01-30T06:13:49;2.50;99.90
11089;DHT22;5598;48.648;8.908;2024-01-30T06:16:16;2.50;99.90
11089;DHT22;5598;48.648;8.908;2024-01-30T06:18:45;2.50;99.90
11089;DHT22;5598;48.648;8.908;2024-01-30T06:21:12;2.50;99.90
11089;DHT22;5598;48.648;8.908;2024-01-30T06:23:40;2.40;99.90
11089;DHT22;5598;48.648;8.908;2024-01-30T06:26:07;2.40;99.90
11089;DHT22;5598;48.648;8.908;2024-01-30T06:28:34;2.40;99.90
11089;DHT22;5598;48.648;8.908;2024-01-30T06:31:01;2.40;99.90
11089;DHT22;5598;48.648;8.908;2024-01-30T06:33:28;2.40;99.90
11089;DHT22;5598;48.648;8.908;2024-01-30T06:35:55;2.40;99.90
11089;DHT22;5598;48.648;8.908;2024-01-30T06:38:21;2.40;99.90
11089;DHT22;5598;48.648;8.908;2024-01-30T06:40:49;2.40;99.90
11089;DHT22;5598;48.648;8.908;2024-01-30T06:43:16;2.40;99.90
11089;DHT22;5598;48.648;8.908;2024-01-30T06:45:43;2.40;99.90
11089;DHT22;5598;48.648;8.908;2024-01-30T06:48:10;2.40;99.90
11089;DHT22;5598;48.648;8.908;2024-01-30T06:50:37;2.50;99.90
11089;DHT22;5598;48.648;8.908;2024-01-30T06:53:04;2.50;99.90
11089;DHT22;5598;48.648;8.908;2024-01-30T06:55:30;2.60;99.90
11089;DHT22;5598;48.648;8.908;2024-01-30T06:57:58;2.60;99.90
11089;DHT22;5598;48.648;8.908;2024-01-30T07:00:25;2.70;99.90
11089;DHT22;5598;48.648;8.908;2024-01-30T07:02:52;2.70;99.90
11089;DHT22;5598;48.648;8.908;2024-01-30T07:05:19;2.70;99.90
11089;DHT22;5598;48.648;8.908;2024-01-30T07:07:47;2.70;99.90
11089;DHT22;5598;48.648;8.908;2024-01-30T07:10:14;2.70;99.90
11089;DHT22;5598;48.648;8.908;2024-01-30T07:12:42;2.70;99.90
11089;DHT22;5598;48.648;8.908;2024-01-30T07:15:10;2.70;99.90
11089;DHT22;5598;48.648;8.908;2024-01-30T07:17:39;2.70;99.90
11089;DHT22;5598;48.648;8.908;2024-01-30T07:20:09;2.80;99.90
11089;DHT22;5598;48.648;8.908;2024-01-30T07:22:36;2.80;99.90
11089;DHT22;5598;48.648;8.908;2024-01-30T07:25:09;2.80;99.90
11089;DHT22;5598;48.648;8.908;2024-01-30T07:27:35;2.90;99.90
11089;DHT22;5598;48.648;8.908;2024-01-30T07:30:03;2.90;99.90
11089;DHT22;5598;48.648;8.908;2024-01-30T07:32:31;3.10;99.90
11089;DHT22;5598;48.648;8.908;2024-01-30T07:34:58;3.20;99.90
11089;DHT22;5598;48.648;8.908;2024-01-30T07:37:25;3.40;99.90
11089;DHT22;5598;48.648;8.908;2024-01-30T07:39:54;3.50;99.90
11089;DHT22;5598;48.648;8.908;2024-01-30T07:42:21;3.60;99.90
11089;DHT22;5598;48.648;8.908;2024-01-30T07:44:47;3.70;99.90
11089;DHT22;5598;48.648;8.908;2024-01-30T07:47:24;3.80;99.90
11089;DHT22;5598;48.648;8.908;2024-01-30T07:50:00;4.00;99.90
11089;DHT22;5598;48.648;8.908;2024-01-30T07:52:27;4.20;99.90
11089;DHT22;5598;48.648;8.908;2024-01-30T07:54:55;4.30;99.90
11089;DHT22;5598;48.648;8.908;2024-01-30T07:57:22;4.50;99.80
11089;DHT22;5598;48.648;8.908;2024-01-30T07:59:49;4.50;99.60
11089;DHT22;5598;48.648;8.908;2024-01-30T08:02:18;4.60;99.40
11089;DHT22;5598;48.648;8.908;2024-01-30T08:04:49;4.70;99.50
11089;DHT22;5598;48.648;8.908;2024-01-30T08:07:17;4.90;99.80
11089;DHT22;5598;48.648;8.908;2024-01-30T08:09:50;5.00;99.90
11089;DHT22;5598;48.648;8.908;2024-01-30T08:12:17;5.20;99.30
11089;DHT22;5598;48.648;8.908;2024-01-30T08:14:45;5.40;99.20
11089;DHT22;5598;48.648;8.908;2024-01-30T08:17:12;5.60;99.20
11089;DHT22;5598;48.648;8.908;2024-01-30T08:19:39;5.80;99.10
11089;DHT22;5598;48.648;8.908;2024-01-30T08:22:07;6.00;98.90
11089;DHT22;5598;48.648;8.908;2024-01-30T08:24:36;6.20;98.80
11089;DHT22;5598;48.648;8.908;2024-01-30T08:27:03;6.40;98.10
11089;DHT22;5598;48.648;8.908;2024-01-30T08:29:33;6.60;97.40
11089;DHT22;5598;48.648;8.908;2024-01-30T08:32:00;6.50;96.80
11089;DHT22;5598;48.648;8.908;2024-01-30T08:34:26;6.40;97.40
11089;DHT22;5598;48.648;8.908;2024-01-30T08:36:55;6.40;97.00
11089;DHT22;5598;48.648;8.908;2024-01-30T08:39:22;6.20;97.20
11089;DHT22;5598;48.648;8.908;2024-01-30T08:41:50;6.10;97.00
11089;DHT22;5598;48.648;8.908;2024-01-30T08:44:19;6.10;97.50
11089;DHT22;5598;48.648;8.908;2024-01-30T08:46:46;6.20;97.30
11089;DHT22;5598;48.648;8.908;2024-01-30T08:49:22;6.20;97.00
11089;DHT22;5598;48.648;8.908;2024-01-30T08:51:49;6.30;96.70
11089;DHT22;5598;48.648;8.908;2024-01-30T08:54:15;6.40;96.80
11089;DHT22;5598;48.648;8.908;2024-01-30T08:56:46;6.40;96.80
11089;DHT22;5598;48.648;8.908;2024-01-30T08:59:15;6.70;96.30
11089;DHT22;5598;48.648;8.908;2024-01-30T09:01:42;6.90;95.80
11089;DHT22;5598;48.648;8.908;2024-01-30T09:04:12;7.10;95.50
11089;DHT22;5598;48.648;8.908;2024-01-30T09:06:39;7.30;95.60
11089;DHT22;5598;48.648;8.908;2024-01-30T09:09:06;7.40;94.90
11089;DHT22;5598;48.648;8.908;2024-01-30T09:11:32;7.50;94.80
11089;DHT22;5598;48.648;8.908;2024-01-30T09:14:01;7.60;94.60
11089;DHT22;5598;48.648;8.908;2024-01-30T09:16:32;7.50;95.60
11089;DHT22;5598;48.648;8.908;2024-01-30T09:18:59;7.40;94.60
11089;DHT22;5598;48.648;8.908;2024-01-30T09:21:26;7.40;94.70
11089;DHT22;5598;48.648;8.908;2024-01-30T09:23:54;7.40;95.00
11089;DHT22;5598;48.648;8.908;2024-01-30T09:26:21;7.30;95.20
11089;DHT22;5598;48.648;8.908;2024-01-30T09:28:48;7.30;96.00
11089;DHT22;5598;48.648;8.908;2024-01-30T09:31:16;7.40;95.60
11089;DHT22;5598;48.648;8.908;2024-01-30T09:33:45;7.40;95.00
11089;DHT22;5598;48.648;8.908;2024-01-30T09:36:13;7.40;95.20
11089;DHT22;5598;48.648;8.908;2024-01-30T09:38:45;7.40;95.10
11089;DHT22;5598;48.648;8.908;2024-01-30T09:41:12;7.40;94.90
11089;DHT22;5598;48.648;8.908;2024-01-30T09:43:39;7.40;94.90
11089;DHT22;5598;48.648;8.908;2024-01-30T09:46:11;7.40;94.90
11089;DHT22;5598;48.648;8.908;2024-01-30T09:48:39;7.40;95.40
11089;DHT22;5598;48.648;8.908;2024-01-30T09:51:11;7.50;95.40
11089;DHT22;5598;48.648;8.908;2024-01-30T09:53:38;7.50;95.30
11089;DHT22;5598;48.648;8.908;2024-01-30T09:56:08;7.50;95.10
11089;DHT22;5598;48.648;8.908;2024-01-30T09:58:35;7.60;95.40
11089;DHT22;5598;48.648;8.908;2024-01-30T10:01:02;7.60;95.20
11089;DHT22;5598;48.648;8.908;2024-01-30T10:03:28;7.70;94.50
11089;DHT22;5598;48.648;8.908;2024-01-30T10:05:57;7.70;94.70
11089;DHT22;5598;48.648;8.908;2024-01-30T10:08:26;7.80;94.50
11089;DHT22;5598;48.648;8.908;2024-01-30T10:10:55;7.80;94.70
11089;DHT22;5598;48.648;8.908;2024-01-30T10:13:22;7.80;94.90
11089;DHT22;5598;48.648;8.908;2024-01-30T10:15:49;7.90;94.90
11089;DHT22;5598;48.648;8.908;2024-01-30T10:18:22;7.90;94.80
11089;DHT22;5598;48.648;8.908;2024-01-30T10:20:49;7.90;95.10
11089;DHT22;5598;48.648;8.908;2024-01-30T10:23:22;8.00;94.90
11089;DHT22;5598;48.648;8.908;2024-01-30T10:25:51;8.10;94.60
11089;DHT22;5598;48.648;8.908;2024-01-30T10:28:18;8.10;94.80
11089;DHT22;5598;48.648;8.908;2024-01-30T10:30:47;8.30;94.60
11089;DHT22;5598;48.648;8.908;2024-01-30T10:33:27;8.30;95.30
11089;DHT22;5598;48.648;8.908;2024-01-30T10:35:56;8.50;94.90
11089;DHT22;5598;48.648;8.908;2024-01-30T10:38:33;8.60;94.30
11089;DHT22;5598;48.648;8.908;2024-01-30T10:41:08;8.90;94.50
11089;DHT22;5598;48.648;8.908;2024-01-30T10:43:41;9.00;93.90
11089;DHT22;5598;48.648;8.908;2024-01-30T10:46:17;9.30;93.70
11089;DHT22;5598;48.648;8.908;2024-01-30T10:48:58;9.40;93.40
11089;DHT22;5598;48.648;8.908;2024-01-30T10:51:28;9.60;93.60
11089;DHT22;5598;48.648;8.908;2024-01-30T10:53:56;9.70;93.30
11089;DHT22;5598;48.648;8.908;2024-01-30T10:56:25;9.80;93.30
11089;DHT22;5598;48.648;8.908;2024-01-30T10:58:54;9.90;93.00
11089;DHT22;5598;48.648;8.908;2024-01-30T11:01:22;10.00;92.70
11089;DHT22;5598;48.648;8.908;2024-01-30T11:03:49;10.20;92.80
11089;DHT22;5598;48.648;8.908;2024-01-30T11:06:19;10.30;92.20
11089;DHT22;5598;48.648;8.908;2024-01-30T11:09:00;10.40;91.60
11089;DHT22;5598;48.648;8.908;2024-01-30T11:11:30;10.30;92.20
11089;DHT22;5598;48.648;8.908;2024-01-30T11:14:00;10.20;91.60
11089;DHT22;5598;48.648;8.908;2024-01-30T11:16:31;10.30;92.80
11089;DHT22;5598;48.648;8.908;2024-01-30T11:19:00;10.30;92.30
11089;DHT22;5598;48.648;8.908;2024-01-30T11:21:27;10.30;92.80
11089;DHT22;5598;48.648;8.908;2024-01-30T11:23:55;10.30;92.10
11089;DHT22;5598;48.648;8.908;2024-01-30T11:26:28;10.20;92.30
11089;DHT22;5598;48.648;8.908;2024-01-30T11:28:56;10.20;92.80
11089;DHT22;5598;48.648;8.908;2024-01-30T11:31:23;10.20;92.70
11089;DHT22;5598;48.648;8.908;2024-01-30T11:33:52;10.20;92.90
11089;DHT22;5598;48.648;8.908;2024-01-30T11:36:21;10.20;92.30
11089;DHT22;5598;48.648;8.908;2024-01-30T11:38:50;10.30;92.20
11089;DHT22;5598;48.648;8.908;2024-01-30T11:41:18;10.30;92.30
11089;DHT22;5598;48.648;8.908;2024-01-30T11:43:51;10.20;92.40
11089;DHT22;5598;48.648;8.908;2024-01-30T11:46:19;10.20;92.90
11089;DHT22;5598;48.648;8.908;2024-01-30T11:48:46;10.10;92.50
11089;DHT22;5598;48.648;8.908;2024-01-30T11:51:15;10.20;92.70
11089;DHT22;5598;48.648;8.908;2024-01-30T11:53:44;10.10;92.40
11089;DHT22;5598;48.648;8.908;2024-01-30T11:56:15;10.10;92.50
11089;DHT22;5598;48.648;8.908;2024-01-30T11:58:42;10.20;92.30
11089;DHT22;5598;48.648;8.908;2024-01-30T12:01:10;10.20;92.40
11089;DHT22;5598;48.648;8.908;2024-01-30T12:03:41;10.30;91.70
11089;DHT22;5598;48.648;8.908;2024-01-30T12:06:08;10.40;92.30
11089;DHT22;5598;48.648;8.908;2024-01-30T12:08:35;10.40;92.00
11089;DHT22;5598;48.648;8.908;2024-01-30T12:11:10;10.50;92.50
11089;DHT22;5598;48.648;8.908;2024-01-30T12:13:36;10.50;92.30
11089;DHT22;5598;48.648;8.908;2024-01-30T12:16:05;10.50;91.70
11089;DHT22;5598;48.648;8.908;2024-01-30T12:18:32;10.60;92.20
11089;DHT22;5598;48.648;8.908;2024-01-30T12:21:01;10.70;92.40
11089;DHT22;5598;48.648;8.908;2024-01-30T12:23:35;10.80;92.00
11089;DHT22;5598;48.648;8.908;2024-01-30T12:26:02;10.90;91.70
11089;DHT22;5598;48.648;8.908;2024-01-30T12:28:32;11.00;92.00
11089;DHT22;5598;48.648;8.908;2024-01-30T12:31:01;11.00;92.70
11089;DHT22;5598;48.648;8.908;2024-01-30T12:33:29;11.10;91.70
11089;DHT22;5598;48.648;8.908;2024-01-30T12:35:56;11.10;92.00
11089;DHT22;5598;48.648;8.908;2024-01-30T12:38:24;11.20;92.00
11089;DHT22;5598;48.648;8.908;2024-01-30T12:40:54;11.20;91.70
11089;DHT22;5598;48.648;8.908;2024-01-30T12:43:21;11.30;92.40
11089;DHT22;5598;48.648;8.908;2024-01-30T12:45:48;11.30;92.20
11089;DHT22;5598;48.648;8.908;2024-01-30T12:48:15;11.50;91.70
11089;DHT22;5598;48.648;8.908;2024-01-30T12:50:42;11.60;91.30
11089;DHT22;5598;48.648;8.908;2024-01-30T12:53:09;11.70;91.20
11089;DHT22;5598;48.648;8.908;2024-01-30T12:55:37;11.80;91.70
11089;DHT22;5598;48.648;8.908;2024-01-30T12:58:04;11.90;91.60
11089;DHT22;5598;48.648;8.908;2024-01-30T13:00:31;11.90;91.10
11089;DHT22;5598;48.648;8.908;2024-01-30T13:02:59;12.00;90.40
11089;DHT22;5598;48.648;8.908;2024-01-30T13:05:26;12.10;90.40
11089;DHT22;5598;48.648;8.908;2024-01-30T13:07:53;12.10;90.60
11089;DHT22;5598;48.648;8.908;2024-01-30T13:10:22;12.20;90.10
11089;DHT22;5598;48.648;8.908;2024-01-30T13:12:50;12.20;89.30
11089;DHT22;5598;48.648;8.908;2024-01-30T13:15:17;12.30;89.90
11089;DHT22;5598;48.648;8.908;2024-01-30T13:17:44;12.40;89.50
11089;DHT22;5598;48.648;8.908;2024-01-30T13:20:12;12.40;89.50
11089;DHT22;5598;48.648;8.908;2024-01-30T13:22:43;12.40;90.60
11089;DHT22;5598;48.648;8.908;2024-01-30T13:25:36;12.50;89.00
11089;DHT22;5598;48.648;8.908;2024-01-30T13:28:16;12.70;89.40
11089;DHT22;5598;48.648;8.908;2024-01-30T13:30:42;12.80;89.20
11089;DHT22;5598;48.648;8.908;2024-01-30T13:33:09;12.80;88.50
11089;DHT22;5598;48.648;8.908;2024-01-30T13:35:46;12.90;89.00
11089;DHT22;5598;48.648;8.908;2024-01-30T13:38:19;13.00;87.00
11089;DHT22;5598;48.648;8.908;2024-01-30T13:40:46;13.00;86.80
11089;DHT22;5598;48.648;8.908;2024-01-30T13:43:14;13.00;87.40
11089;DHT22;5598;48.648;8.908;2024-01-30T13:45:46;13.00;85.40
11089;DHT22;5598;48.648;8.908;2024-01-30T13:48:13;13.00;86.80
11089;DHT22;5598;48.648;8.908;2024-01-30T13:50:46;13.10;87.50
11089;DHT22;5598;48.648;8.908;2024-01-30T13:53:13;13.10;87.10
11089;DHT22;5598;48.648;8.908;2024-01-30T13:55:40;13.10;87.10
11089;DHT22;5598;48.648;8.908;2024-01-30T13:58:14;13.10;87.50
11089;DHT22;5598;48.648;8.908;2024-01-30T14:00:41;13.20;87.30
11089;DHT22;5598;48.648;8.908;2024-01-30T14:03:14;13.20;87.90
11089;DHT22;5598;48.648;8.908;2024-01-30T14:05:41;13.20;88.10
11089;DHT22;5598;48.648;8.908;2024-01-30T14:08:09;13.10;87.30
11089;DHT22;5598;48.648;8.908;2024-01-30T14:10:36;13.10;86.40
11089;DHT22;5598;48.648;8.908;2024-01-30T14:13:03;13.10;86.30
11089;DHT22;5598;48.648;8.908;2024-01-30T14:15:31;13.10;86.20
11089;DHT22;5598;48.648;8.908;2024-01-30T14:17:58;13.10;87.10
11089;DHT22;5598;48.648;8.908;2024-01-30T14:20:25;13.00;86.90
11089;DHT22;5598;48.648;8.908;2024-01-30T14:22:55;13.10;86.30
11089;DHT22;5598;48.648;8.908;2024-01-30T14:25:22;13.10;86.70
11089;DHT22;5598;48.648;8.908;2024-01-30T14:27:49;13.10;85.80
11089;DHT22;5598;48.648;8.908;2024-01-30T14:30:17;13.10;86.80
11089;DHT22;5598;48.648;8.908;2024-01-30T14:32:46;13.00;86.40
11089;DHT22;5598;48.648;8.908;2024-01-30T14:35:14;13.00;86.60
11089;DHT22;5598;48.648;8.908;2024-01-30T14:37:40;13.00;86.60
11089;DHT22;5598;48.648;8.908;2024-01-30T14:40:08;13.00;86.50
11089;DHT22;5598;48.648;8.908;2024-01-30T14:42:35;12.90;87.90
11089;DHT22;5598;48.648;8.908;2024-01-30T14:45:03;12.80;88.20
11089;DHT22;5598;48.648;8.908;2024-01-30T14:47:31;12.80;87.60
11089;DHT22;5598;48.648;8.908;2024-01-30T14:49:59;12.80;87.60
11089;DHT22;5598;48.648;8.908;2024-01-30T14:52:25;12.70;88.00
11089;DHT22;5598;48.648;8.908;2024-01-30T14:54:52;12.70;89.10
11089;DHT22;5598;48.648;8.908;2024-01-30T14:57:19;12.60;89.20
11089;DHT22;5598;48.648;8.908;2024-01-30T14:59:46;12.60;90.00
11089;DHT22;5598;48.648;8.908;2024-01-30T15:02:14;12.50;90.50
11089;DHT22;5598;48.648;8.908;2024-01-30T15:04:41;12.50;90.40
11089;DHT22;5598;48.648;8.908;2024-01-30T15:07:10;12.40;90.60
11089;DHT22;5598;48.648;8.908;2024-01-30T15:09:37;12.40;90.50
11089;DHT22;5598;48.648;8.908;2024-01-30T15:12:04;12.30;91.30
11089;DHT22;5598;48.648;8.908;2024-01-30T15:14:31;12.20;92.10
11089;DHT22;5598;48.648;8.908;2024-01-30T15:16:58;12.20;91.30
11089;DHT22;5598;48.648;8.908;2024-01-30T15:19:24;12.10;92.50
11089;DHT22;5598;48.648;8.908;2024-01-30T15:21:51;12.10;92.60
11089;DHT22;5598;48.648;8.908;2024-01-30T15:24:19;12.00;91.90
11089;DHT22;5598;48.648;8.908;2024-01-30T15:26:49;12.00;93.20
11089;DHT22;5598;48.648;8.908;2024-01-30T15:29:16;11.90;93.40
11089;DHT22;5598;48.648;8.908;2024-01-30T15:31:43;11.90;92.60
11089;DHT22;5598;48.648;8.908;2024-01-30T15:34:10;11.80;92.80
11089;DHT22;5598;48.648;8.908;2024-01-30T15:36:37;11.80;92.80
11089;DHT22;5598;48.648;8.908;2024-01-30T15:39:03;11.70;92.80
11089;DHT22;5598;48.648;8.908;2024-01-30T15:41:32;11.70;93.20
11089;DHT22;5598;48.648;8.908;2024-01-30T15:43:58;11.60;94.10
11089;DHT22;5598;48.648;8.908;2024-01-30T15:46:27;11.60;93.80
11089;DHT22;5598;48.648;8.908;2024-01-30T15:48:54;11.50;94.20
11089;DHT22;5598;48.648;8.908;2024-01-30T15:51:21;11.60;94.40
11089;DHT22;5598;48.648;8.908;2024-01-30T15:53:48;11.50;94.20
11089;DHT22;5598;48.648;8.908;2024-01-30T15:56:15;11.30;94.90
11089;DHT22;5598;48.648;8.908;2024-01-30T15:58:43;11.30;94.90
11089;DHT22;5598;48.648;8.908;2024-01-30T16:01:18;11.20;95.10